createdAt,value
2017-09-15T00:00:44.433Z,21.47
2017-09-15T00:01:53.388Z,21.43
2017-09-15T00:03:02.179Z,21.43
2017-09-15T00:04:11.785Z,21.4
2017-09-15T00:05:20.756Z,21.43
2017-09-15T00:06:29.465Z,21.42
2017-09-15T00:07:38.112Z,21.37
2017-09-15T00:08:46.961Z,21.49
2017-09-15T00:09:55.613Z,21.53
2017-09-15T00:11:04.279Z,21.43
2017-09-15T00:12:13.876Z,21.44
2017-09-15T00:13:22.840Z,21.5
2017-09-15T00:14:32.432Z,21.49
2017-09-15T00:15:41.069Z,21.49
2017-09-15T00:16:49.708Z,21.47
2017-09-15T00:17:58.356Z,21.5
2017-09-15T00:19:07.337Z,21.42
2017-09-15T00:20:16.459Z,21.44
2017-09-15T00:21:25.742Z,21.46
2017-09-15T00:22:35.018Z,21.59
2017-09-15T00:23:43.975Z,21.53
2017-09-15T00:24:52.944Z,21.54
2017-09-15T00:26:02.062Z,21.49
2017-09-15T00:27:11.347Z,21.47
2017-09-15T00:28:20.304Z,21.44
2017-09-15T00:29:28.956Z,21.54
2017-09-15T00:30:37.915Z,21.49
2017-09-15T00:31:47.186Z,21.49
2017-09-15T00:32:55.832Z,21.56
2017-09-15T00:34:04.795Z,21.52
2017-09-15T00:35:14.069Z,21.56
2017-09-15T00:36:23.353Z,21.52
2017-09-15T00:37:32.310Z,21.52
2017-09-15T00:38:41.583Z,21.49
2017-09-15T00:39:51.175Z,21.56
2017-09-15T00:41:00.132Z,21.52
2017-09-15T00:42:09.098Z,21.52
2017-09-15T00:43:18.527Z,21.59
2017-09-15T00:44:27.804Z,21.53
2017-09-15T00:45:36.771Z,21.56
2017-09-15T00:46:45.422Z,21.56
2017-09-15T00:47:54.394Z,21.59
2017-09-15T00:49:03.030Z,21.58
2017-09-15T00:50:11.986Z,21.54
2017-09-15T00:51:20.947Z,21.52
2017-09-15T00:52:29.594Z,21.53
2017-09-15T00:53:38.241Z,21.59
2017-09-15T00:54:46.894Z,21.58
2017-09-15T00:55:55.542Z,21.53
2017-09-15T00:57:05.129Z,21.56
2017-09-15T00:58:14.407Z,21.53
2017-09-15T00:59:23.389Z,21.54
2017-09-15T01:00:32.674Z,21.58
2017-09-15T01:01:42.278Z,21.59
2017-09-15T01:02:50.940Z,21.53
2017-09-15T01:04:00.216Z,21.54
2017-09-15T01:05:10.444Z,21.59
2017-09-15T01:06:19.556Z,21.53
2017-09-15T01:07:28.522Z,21.53
2017-09-15T01:08:37.486Z,21.58
2017-09-15T01:09:46.448Z,21.58
2017-09-15T01:10:56.042Z,21.58
2017-09-15T01:12:04.692Z,21.59
2017-09-15T01:13:13.347Z,21.58
2017-09-15T01:14:21.994Z,21.54
2017-09-15T01:15:31.260Z,21.54
2017-09-15T01:16:40.226Z,21.52
2017-09-15T01:17:49.658Z,21.52
2017-09-15T01:18:58.313Z,21.56
2017-09-15T01:20:07.300Z,21.52
2017-09-15T01:21:16.914Z,21.56
2017-09-15T01:22:25.553Z,21.58
2017-09-15T01:23:34.668Z,21.52
2017-09-15T01:24:43.944Z,21.58
2017-09-15T01:25:52.915Z,21.59
2017-09-15T01:27:01.571Z,21.58
2017-09-15T01:28:10.541Z,21.54
2017-09-15T01:29:19.657Z,21.59
2017-09-15T01:30:28.618Z,21.58
2017-09-15T01:31:37.570Z,21.53
2017-09-15T01:32:46.533Z,21.5
2017-09-15T01:33:55.502Z,21.53
2017-09-15T01:35:04.775Z,21.58
2017-09-15T01:36:13.742Z,21.62
2017-09-15T01:37:23.342Z,21.56
2017-09-15T01:38:32.309Z,21.58
2017-09-15T01:39:41.265Z,21.58
2017-09-15T01:40:50.691Z,21.54
2017-09-15T01:41:59.965Z,21.59
2017-09-15T01:43:09.238Z,21.52
2017-09-15T01:44:17.870Z,21.58
2017-09-15T01:45:27.155Z,21.5
2017-09-15T01:46:36.590Z,21.53
2017-09-15T01:47:45.227Z,21.54
2017-09-15T01:48:54.195Z,21.53
2017-09-15T01:50:03.471Z,21.58
2017-09-15T01:51:12.744Z,21.56
2017-09-15T01:52:22.171Z,21.54
2017-09-15T01:53:31.132Z,21.49
2017-09-15T01:54:40.081Z,21.56
2017-09-15T01:55:48.717Z,21.58
2017-09-15T01:56:57.676Z,21.52
2017-09-15T01:58:06.797Z,21.56
2017-09-15T01:59:16.137Z,21.5
2017-09-15T02:00:25.401Z,21.54
2017-09-15T02:01:34.425Z,21.53
2017-09-15T02:02:43.694Z,21.56
2017-09-15T02:03:52.346Z,21.53
2017-09-15T02:05:00.993Z,21.61
2017-09-15T02:06:10.261Z,21.58
2017-09-15T02:07:19.234Z,21.53
2017-09-15T02:08:28.196Z,21.61
2017-09-15T02:09:37.635Z,21.59
2017-09-15T02:10:46.614Z,21.52
2017-09-15T02:11:55.882Z,21.54
2017-09-15T02:13:04.545Z,21.52
2017-09-15T02:14:13.837Z,21.53
2017-09-15T02:15:22.935Z,21.52
2017-09-15T02:16:32.220Z,21.52
2017-09-15T02:17:41.257Z,21.53
2017-09-15T02:18:49.900Z,21.56
2017-09-15T02:19:59.221Z,21.54
2017-09-15T02:21:07.858Z,21.56
2017-09-15T02:22:17.143Z,21.54
2017-09-15T02:23:26.739Z,21.54
2017-09-15T02:24:35.395Z,21.58
2017-09-15T02:25:44.975Z,21.53
2017-09-15T02:26:54.076Z,21.58
2017-09-15T02:28:03.030Z,21.53
2017-09-15T02:29:12.055Z,21.56
2017-09-15T02:30:21.963Z,21.54
2017-09-15T02:31:31.248Z,21.54
2017-09-15T02:32:40.355Z,21.52
2017-09-15T02:33:49.327Z,21.56
2017-09-15T02:34:58.283Z,21.54
2017-09-15T02:36:07.243Z,21.59
2017-09-15T02:37:16.273Z,21.54
2017-09-15T02:38:25.546Z,21.53
2017-09-15T02:39:34.189Z,21.53
2017-09-15T02:40:43.458Z,21.52
2017-09-15T02:41:52.420Z,21.59
2017-09-15T02:43:01.713Z,21.53
2017-09-15T02:44:11.158Z,21.58
2017-09-15T02:45:20.752Z,21.58
2017-09-15T02:46:30.043Z,21.49
2017-09-15T02:47:38.692Z,21.59
2017-09-15T02:48:47.653Z,21.52
2017-09-15T02:49:56.762Z,21.58
2017-09-15T02:51:06.037Z,21.52
2017-09-15T02:52:15.636Z,21.54
2017-09-15T02:53:24.912Z,21.58
2017-09-15T02:54:34.183Z,21.58
2017-09-15T02:55:43.148Z,21.54
2017-09-15T02:56:52.115Z,21.5
2017-09-15T02:58:01.388Z,21.58
2017-09-15T02:59:10.359Z,21.54
2017-09-15T03:00:19.302Z,21.56
2017-09-15T03:01:28.260Z,21.58
2017-09-15T03:02:37.843Z,21.53
2017-09-15T03:03:46.797Z,21.58
2017-09-15T03:04:56.069Z,21.62
2017-09-15T03:06:04.718Z,21.54
2017-09-15T03:07:14.095Z,21.56
2017-09-15T03:08:22.731Z,21.58
2017-09-15T03:09:32.007Z,21.59
2017-09-15T03:10:41.288Z,21.56
2017-09-15T03:11:50.246Z,21.58
2017-09-15T03:12:59.626Z,21.64
2017-09-15T03:14:08.588Z,21.58
2017-09-15T03:15:17.544Z,21.53
2017-09-15T03:16:26.809Z,21.54
2017-09-15T03:17:35.480Z,21.58
2017-09-15T03:18:44.230Z,21.58
2017-09-15T03:19:53.517Z,21.61
2017-09-15T03:21:02.161Z,21.59
2017-09-15T03:22:10.818Z,21.58
2017-09-15T03:23:19.791Z,21.53
2017-09-15T03:24:28.545Z,21.59
2017-09-15T03:25:37.826Z,21.56
2017-09-15T03:26:46.803Z,21.54
2017-09-15T03:27:55.774Z,21.53
2017-09-15T03:29:05.363Z,21.59
2017-09-15T03:30:14.474Z,21.58
2017-09-15T03:31:23.426Z,21.58
2017-09-15T03:32:32.703Z,21.56
2017-09-15T03:33:41.973Z,21.54
2017-09-15T03:34:50.608Z,21.53
2017-09-15T03:36:00.222Z,21.56
2017-09-15T03:37:09.496Z,21.52
2017-09-15T03:38:18.131Z,21.52
2017-09-15T03:39:27.720Z,21.52
2017-09-15T03:40:36.673Z,21.5
2017-09-15T03:41:45.739Z,21.61
2017-09-15T03:42:54.382Z,21.54
2017-09-15T03:44:03.968Z,21.54
2017-09-15T03:45:12.604Z,21.58
2017-09-15T03:46:22.195Z,21.54
2017-09-15T03:47:31.168Z,21.56
2017-09-15T03:48:40.127Z,21.61
2017-09-15T03:49:49.723Z,21.5
2017-09-15T03:50:58.686Z,21.61
2017-09-15T03:52:07.972Z,21.65
2017-09-15T03:53:17.079Z,21.54
2017-09-15T03:54:26.024Z,21.69
2017-09-15T03:55:35.293Z,21.61
2017-09-15T03:56:44.253Z,21.59
2017-09-15T03:57:53.525Z,21.61
2017-09-15T03:59:03.209Z,21.64
2017-09-15T04:00:12.479Z,21.59
2017-09-15T04:01:21.750Z,21.67
2017-09-15T04:02:31.326Z,21.65
2017-09-15T04:03:40.293Z,21.65
2017-09-15T04:04:49.085Z,21.61
2017-09-15T04:05:58.041Z,21.61
2017-09-15T04:07:06.702Z,21.53
2017-09-15T04:08:15.357Z,21.58
2017-09-15T04:09:24.951Z,21.67
2017-09-15T04:10:34.223Z,21.59
2017-09-15T04:11:43.500Z,21.58
2017-09-15T04:12:52.477Z,21.67
2017-09-15T04:14:01.747Z,21.54
2017-09-15T04:15:10.715Z,21.58
2017-09-15T04:16:19.531Z,21.58
2017-09-15T04:17:28.170Z,21.53
2017-09-15T04:18:37.482Z,21.64
2017-09-15T04:19:46.438Z,21.53
2017-09-15T04:20:55.401Z,21.53
2017-09-15T04:22:04.680Z,21.58
2017-09-15T04:23:13.966Z,21.64
2017-09-15T04:24:22.906Z,21.61
2017-09-15T04:25:32.814Z,21.62
2017-09-15T04:26:41.799Z,21.65
2017-09-15T04:27:50.585Z,21.67
2017-09-15T04:28:59.884Z,21.62
2017-09-15T04:30:08.844Z,21.61
2017-09-15T04:31:17.813Z,21.61
2017-09-15T04:32:27.080Z,21.65
2017-09-15T04:33:36.343Z,21.61
2017-09-15T04:34:44.987Z,21.62
2017-09-15T04:35:53.961Z,21.58
2017-09-15T04:37:02.612Z,21.58
2017-09-15T04:38:11.886Z,21.54
2017-09-15T04:39:21.209Z,21.56
2017-09-15T04:40:30.231Z,21.61
2017-09-15T04:41:39.198Z,21.65
2017-09-15T04:42:48.163Z,21.54
2017-09-15T04:43:57.129Z,21.61
2017-09-15T04:45:06.575Z,21.53
2017-09-15T04:46:15.842Z,21.65
2017-09-15T04:47:24.490Z,21.62
2017-09-15T04:48:34.414Z,21.61
2017-09-15T04:49:44.035Z,21.58
2017-09-15T04:50:53.459Z,21.54
2017-09-15T04:52:03.048Z,21.65
2017-09-15T04:53:12.661Z,21.65
2017-09-15T04:54:21.311Z,21.61
2017-09-15T04:55:29.962Z,21.67
2017-09-15T04:56:39.272Z,21.59
2017-09-15T04:57:48.233Z,21.65
2017-09-15T04:58:57.189Z,21.61
2017-09-15T05:00:07.405Z,21.62
2017-09-15T05:01:16.673Z,21.64
2017-09-15T05:02:25.633Z,21.61
2017-09-15T05:03:34.904Z,21.61
2017-09-15T05:04:43.865Z,21.59
2017-09-15T05:05:52.822Z,21.65
2017-09-15T05:07:01.797Z,21.64
2017-09-15T05:08:11.229Z,21.61
2017-09-15T05:09:20.580Z,21.61
2017-09-15T05:10:29.536Z,21.61
2017-09-15T05:11:38.180Z,21.59
2017-09-15T05:12:47.456Z,21.68
2017-09-15T05:13:56.266Z,21.61
2017-09-15T05:15:05.538Z,21.65
2017-09-15T05:16:14.181Z,21.65
2017-09-15T05:17:22.845Z,21.68
2017-09-15T05:18:32.135Z,21.69
2017-09-15T05:19:41.870Z,21.62
2017-09-15T05:20:50.835Z,21.65
2017-09-15T05:21:59.528Z,21.61
2017-09-15T05:23:08.803Z,21.64
2017-09-15T05:24:17.458Z,21.64
2017-09-15T05:25:26.523Z,21.65
2017-09-15T05:26:35.485Z,21.61
2017-09-15T05:27:44.124Z,21.68
2017-09-15T05:28:53.413Z,21.68
2017-09-15T05:30:02.065Z,21.69
2017-09-15T05:31:11.181Z,21.68
2017-09-15T05:32:19.820Z,21.67
2017-09-15T05:33:29.088Z,21.67
2017-09-15T05:34:37.728Z,21.64
2017-09-15T05:35:47.023Z,21.74
2017-09-15T05:36:56.135Z,21.71
2017-09-15T05:38:05.452Z,21.65
2017-09-15T05:39:14.424Z,21.71
2017-09-15T05:40:24.035Z,21.74
2017-09-15T05:41:33.027Z,21.71
2017-09-15T05:42:41.676Z,21.75
2017-09-15T05:43:51.022Z,21.77
2017-09-15T05:45:00.386Z,21.82
2017-09-15T05:46:09.745Z,21.77
2017-09-15T05:47:18.718Z,21.82
2017-09-15T05:48:27.754Z,21.8
2017-09-15T05:49:36.392Z,21.82
2017-09-15T05:50:46.424Z,21.9
2017-09-15T05:51:55.786Z,21.77
2017-09-15T05:53:04.879Z,21.86
2017-09-15T05:54:13.916Z,21.82
2017-09-15T05:55:23.201Z,21.92
2017-09-15T05:56:32.535Z,21.9
2017-09-15T05:57:42.148Z,21.88
2017-09-15T05:58:51.458Z,21.91
2017-09-15T06:00:00.540Z,21.91
2017-09-15T06:01:09.234Z,21.92
2017-09-15T06:02:18.256Z,21.9
2017-09-15T06:03:26.960Z,21.94
2017-09-15T06:04:35.629Z,21.99
2017-09-15T06:05:44.392Z,22
2017-09-15T06:06:53.088Z,21.96
2017-09-15T06:08:02.099Z,21.98
2017-09-15T06:09:11.119Z,22.03
2017-09-15T06:10:20.104Z,22.05
2017-09-15T06:11:29.237Z,22.1
2017-09-15T06:12:38.204Z,22.05
2017-09-15T06:13:46.936Z,22.03
2017-09-15T06:14:56.257Z,22.03
2017-09-15T06:16:04.936Z,22.03
2017-09-15T06:17:14.075Z,22.09
2017-09-15T06:18:23.035Z,22.09
2017-09-15T06:19:32.354Z,22.06
2017-09-15T06:20:41.633Z,22.12
2017-09-15T06:21:50.977Z,22.03
2017-09-15T06:23:00.100Z,22.05
2017-09-15T06:24:09.067Z,22.07
2017-09-15T06:25:18.065Z,22.09
2017-09-15T06:26:26.857Z,21.98
2017-09-15T06:27:36.148Z,21.96
2017-09-15T06:28:45.579Z,21.98
2017-09-15T06:29:55.191Z,22
2017-09-15T06:31:04.283Z,21.98
2017-09-15T06:32:13.914Z,21.98
2017-09-15T06:33:22.949Z,21.98
2017-09-15T06:34:31.985Z,22
2017-09-15T06:35:41.282Z,22
2017-09-15T06:36:50.578Z,22.03
2017-09-15T06:37:59.582Z,22.1
2017-09-15T06:39:09.038Z,21.96
2017-09-15T06:40:17.745Z,21.96
2017-09-15T06:41:26.727Z,22
2017-09-15T06:42:35.693Z,21.88
2017-09-15T06:43:44.986Z,21.99
2017-09-15T06:44:55.390Z,21.92
2017-09-15T06:46:06.311Z,22
2017-09-15T06:47:15.957Z,21.96
2017-09-15T06:48:24.928Z,22
2017-09-15T06:49:34.228Z,22.02
2017-09-15T06:50:43.557Z,21.96
2017-09-15T06:51:53.567Z,22.03
2017-09-15T06:53:02.896Z,22.02
2017-09-15T06:54:11.893Z,21.94
2017-09-15T06:55:21.231Z,21.96
2017-09-15T06:56:30.514Z,21.99
2017-09-15T06:57:40.095Z,22
2017-09-15T06:58:49.727Z,22.03
2017-09-15T06:59:58.793Z,22.05
2017-09-15T07:01:07.813Z,22.1
2017-09-15T07:02:17.175Z,22.07
2017-09-15T07:03:25.925Z,22.17
2017-09-15T07:04:34.956Z,22.1
2017-09-15T07:05:43.606Z,22.06
2017-09-15T07:06:52.577Z,22.14
2017-09-15T07:08:01.595Z,22.14
2017-09-15T07:09:10.575Z,22.14
2017-09-15T07:10:19.541Z,22.05
2017-09-15T07:11:28.217Z,22.06
2017-09-15T07:12:37.496Z,22.1
2017-09-15T07:13:46.775Z,22.09
2017-09-15T07:14:55.905Z,22.07
2017-09-15T07:16:05.220Z,22.03
2017-09-15T07:17:14.181Z,22.02
2017-09-15T07:18:23.771Z,21.99
2017-09-15T07:19:33.054Z,21.94
2017-09-15T07:20:42.123Z,22.06
2017-09-15T07:21:50.802Z,21.98
2017-09-15T07:22:59.495Z,22
2017-09-15T07:24:08.798Z,21.98
2017-09-15T07:25:17.455Z,21.94
2017-09-15T07:26:26.728Z,21.96
2017-09-15T07:27:35.687Z,21.99
2017-09-15T07:28:45.632Z,22.03
2017-09-15T07:29:54.603Z,22.05
2017-09-15T07:31:03.582Z,22.05
2017-09-15T07:32:12.583Z,21.96
2017-09-15T07:33:22.219Z,21.98
2017-09-15T07:34:31.185Z,21.98
2017-09-15T07:35:40.157Z,22.02
2017-09-15T07:36:48.824Z,21.94
2017-09-15T07:37:58.098Z,21.96
2017-09-15T07:39:07.382Z,22.02
2017-09-15T07:40:16.673Z,22.07
2017-09-15T07:41:25.964Z,22.05
2017-09-15T07:42:35.254Z,22.03
2017-09-15T07:43:43.936Z,22.05
2017-09-15T07:44:53.211Z,22.2
2017-09-15T07:46:02.182Z,22.21
2017-09-15T07:47:11.489Z,22.2
2017-09-15T07:48:20.169Z,22.22
2017-09-15T07:49:29.312Z,22.15
2017-09-15T07:50:38.900Z,22.2
2017-09-15T07:51:48.809Z,22.21
2017-09-15T07:52:58.440Z,22.28
2017-09-15T07:54:07.103Z,22.27
2017-09-15T07:55:16.534Z,22.22
2017-09-15T07:56:25.560Z,22.27
2017-09-15T07:57:35.181Z,22.28
2017-09-15T07:58:43.842Z,22.25
2017-09-15T07:59:53.153Z,22.31
2017-09-15T08:01:01.819Z,22.28
2017-09-15T08:02:11.437Z,22.36
2017-09-15T08:03:20.809Z,22.39
2017-09-15T08:04:30.085Z,22.36
2017-09-15T08:05:39.392Z,22.4
2017-09-15T08:06:48.522Z,22.47
2017-09-15T08:07:57.800Z,22.46
2017-09-15T08:09:07.088Z,22.46
2017-09-15T08:10:15.771Z,22.43
2017-09-15T08:11:24.733Z,22.43
2017-09-15T08:12:33.746Z,22.36
2017-09-15T08:13:42.715Z,22.42
2017-09-15T08:14:51.679Z,22.37
2017-09-15T08:16:00.358Z,22.33
2017-09-15T08:17:10.605Z,22.39
2017-09-15T08:18:21.104Z,22.39
2017-09-15T08:19:30.273Z,22.39
2017-09-15T08:20:39.289Z,22.36
2017-09-15T08:21:48.938Z,22.42
2017-09-15T08:22:58.245Z,22.35
2017-09-15T08:24:07.285Z,22.36
2017-09-15T08:25:16.889Z,22.35
2017-09-15T08:26:25.847Z,22.35
2017-09-15T08:27:35.116Z,22.4
2017-09-15T08:28:44.395Z,22.42
2017-09-15T08:29:53.506Z,22.4
2017-09-15T08:31:02.159Z,22.43
2017-09-15T08:32:11.168Z,22.36
2017-09-15T08:33:20.148Z,22.43
2017-09-15T08:34:29.148Z,22.54
2017-09-15T08:35:38.434Z,22.55
2017-09-15T08:36:47.430Z,22.46
2017-09-15T08:37:56.409Z,22.6
2017-09-15T08:39:05.417Z,22.49
2017-09-15T08:40:14.423Z,22.46
2017-09-15T08:41:23.501Z,22.43
2017-09-15T08:42:32.151Z,22.37
2017-09-15T08:43:41.434Z,22.42
2017-09-15T08:44:50.396Z,22.42
2017-09-15T08:46:00.030Z,22.37
2017-09-15T08:47:08.691Z,22.39
2017-09-15T08:48:17.991Z,22.37
2017-09-15T08:49:26.960Z,22.35
2017-09-15T08:50:35.612Z,22.37
2017-09-15T08:51:44.600Z,22.33
2017-09-15T08:52:53.321Z,22.35
2017-09-15T08:54:02.929Z,22.3
2017-09-15T08:55:12.197Z,22.36
2017-09-15T08:56:21.524Z,22.4
2017-09-15T08:57:30.457Z,22.37
2017-09-15T08:58:39.922Z,22.35
2017-09-15T08:59:49.215Z,22.35
2017-09-15T09:00:57.869Z,22.39
2017-09-15T09:02:07.154Z,22.4
2017-09-15T09:03:16.481Z,22.39
2017-09-15T09:04:25.593Z,22.4
2017-09-15T09:05:34.864Z,22.4
2017-09-15T09:06:44.180Z,22.36
2017-09-15T09:07:52.853Z,22.43
2017-09-15T09:09:02.156Z,22.46
2017-09-15T09:10:11.120Z,22.46
2017-09-15T09:11:19.787Z,22.4
2017-09-15T09:12:28.435Z,22.52
2017-09-15T09:13:37.407Z,22.58
2017-09-15T09:14:46.696Z,22.55
2017-09-15T09:15:55.824Z,22.61
2017-09-15T09:17:04.544Z,22.61
2017-09-15T09:18:13.705Z,22.58
2017-09-15T09:19:23.498Z,22.52
2017-09-15T09:20:32.588Z,22.6
2017-09-15T09:21:42.010Z,22.55
2017-09-15T09:22:51.347Z,22.61
2017-09-15T09:24:00.691Z,22.64
2017-09-15T09:25:09.811Z,22.61
2017-09-15T09:26:19.296Z,22.58
2017-09-15T09:27:29.212Z,22.55
2017-09-15T09:28:38.721Z,22.6
2017-09-15T09:29:47.904Z,22.61
2017-09-15T09:30:56.938Z,22.58
2017-09-15T09:32:06.226Z,22.57
2017-09-15T09:33:15.482Z,22.7
2017-09-15T09:34:24.850Z,22.58
2017-09-15T09:35:33.518Z,22.55
2017-09-15T09:36:42.384Z,22.6
2017-09-15T09:37:51.371Z,22.57
2017-09-15T09:39:00.517Z,22.54
2017-09-15T09:40:10.292Z,22.49
2017-09-15T09:41:19.907Z,22.62
2017-09-15T09:42:28.871Z,22.57
2017-09-15T09:43:37.930Z,22.58
2017-09-15T09:44:47.368Z,22.58
2017-09-15T09:45:57.021Z,22.55
2017-09-15T09:47:05.984Z,22.62
2017-09-15T09:48:15.275Z,22.65
2017-09-15T09:49:23.979Z,22.61
2017-09-15T09:50:32.688Z,22.7
2017-09-15T09:51:42.955Z,22.55
2017-09-15T09:52:52.649Z,22.72
2017-09-15T09:54:01.619Z,22.72
2017-09-15T09:55:10.286Z,22.72
2017-09-15T09:56:20.154Z,22.7
2017-09-15T09:57:29.230Z,22.61
2017-09-15T09:58:38.354Z,22.75
2017-09-15T09:59:47.628Z,22.73
2017-09-15T10:00:56.641Z,22.76
2017-09-15T10:02:07.223Z,22.77
2017-09-15T10:03:16.190Z,22.7
2017-09-15T10:04:25.470Z,22.72
2017-09-15T10:05:35.184Z,22.72
2017-09-15T10:06:44.510Z,22.65
2017-09-15T10:07:54.121Z,22.7
2017-09-15T10:09:03.505Z,22.73
2017-09-15T10:10:12.620Z,22.73
2017-09-15T10:11:21.522Z,22.75
2017-09-15T10:12:30.583Z,22.7
2017-09-15T10:13:40.016Z,22.79
2017-09-15T10:14:49.975Z,22.83
2017-09-15T10:15:58.718Z,22.82
2017-09-15T10:17:08.033Z,22.82
2017-09-15T10:18:17.353Z,22.85
2017-09-15T10:19:26.453Z,22.8
2017-09-15T10:20:35.690Z,22.77
2017-09-15T10:21:44.869Z,22.72
2017-09-15T10:22:54.191Z,22.77
2017-09-15T10:24:04.412Z,22.76
2017-09-15T10:25:14.997Z,22.65
2017-09-15T10:26:23.973Z,22.62
2017-09-15T10:27:32.934Z,22.68
2017-09-15T10:28:42.222Z,22.72
2017-09-15T10:29:51.527Z,22.68
2017-09-15T10:31:00.331Z,22.73
2017-09-15T10:32:09.612Z,22.7
2017-09-15T10:33:18.623Z,22.67
2017-09-15T10:34:27.895Z,22.65
2017-09-15T10:35:37.182Z,22.75
2017-09-15T10:36:46.292Z,22.75
2017-09-15T10:37:54.929Z,22.8
2017-09-15T10:39:03.901Z,22.8
2017-09-15T10:40:12.860Z,22.8
2017-09-15T10:41:22.152Z,22.8
2017-09-15T10:42:31.261Z,22.83
2017-09-15T10:43:40.246Z,22.77
2017-09-15T10:44:48.896Z,22.8
2017-09-15T10:45:57.876Z,22.73
2017-09-15T10:47:07.217Z,22.82
2017-09-15T10:48:17.279Z,22.79
2017-09-15T10:49:25.923Z,22.7
2017-09-15T10:50:34.891Z,22.77
2017-09-15T10:51:43.847Z,22.75
2017-09-15T10:52:52.801Z,22.75
2017-09-15T10:54:02.483Z,22.75
2017-09-15T10:55:11.508Z,22.73
2017-09-15T10:56:20.494Z,22.7
2017-09-15T10:57:29.153Z,22.72
2017-09-15T10:58:38.117Z,22.75
2017-09-15T10:59:47.095Z,22.7
2017-09-15T11:00:56.068Z,22.65
2017-09-15T11:02:05.054Z,22.73
2017-09-15T11:03:14.647Z,22.72
2017-09-15T11:04:24.248Z,22.61
2017-09-15T11:05:33.358Z,22.62
2017-09-15T11:06:42.319Z,22.57
2017-09-15T11:07:51.308Z,22.6
2017-09-15T11:09:00.962Z,22.67
2017-09-15T11:10:09.615Z,22.57
2017-09-15T11:11:18.595Z,22.6
2017-09-15T11:12:27.870Z,22.61
2017-09-15T11:13:36.833Z,22.75
2017-09-15T11:14:46.742Z,22.75
2017-09-15T11:15:55.397Z,22.73
2017-09-15T11:17:04.399Z,22.8
2017-09-15T11:18:13.691Z,22.8
2017-09-15T11:19:22.975Z,22.8
2017-09-15T11:20:31.955Z,22.79
2017-09-15T11:21:41.259Z,22.76
2017-09-15T11:22:50.048Z,22.79
2017-09-15T11:23:58.684Z,22.79
2017-09-15T11:25:07.643Z,22.8
2017-09-15T11:26:16.306Z,22.82
2017-09-15T11:27:25.583Z,22.86
2017-09-15T11:28:34.708Z,22.88
2017-09-15T11:29:44.310Z,22.88
2017-09-15T11:30:53.592Z,22.9
2017-09-15T11:32:02.893Z,22.97
2017-09-15T11:33:11.883Z,22.91
2017-09-15T11:34:21.174Z,22.9
2017-09-15T11:35:30.451Z,22.91
2017-09-15T11:36:39.730Z,22.85
2017-09-15T11:37:48.706Z,22.8
2017-09-15T11:38:57.675Z,22.77
2017-09-15T11:40:07.111Z,22.79
2017-09-15T11:41:15.770Z,22.79
2017-09-15T11:42:24.750Z,22.77
2017-09-15T11:43:34.346Z,22.76
2017-09-15T11:44:43.313Z,22.62
2017-09-15T11:45:53.063Z,22.75
2017-09-15T11:47:02.042Z,22.68
2017-09-15T11:48:11.012Z,22.6
2017-09-15T11:49:20.004Z,22.61
2017-09-15T11:50:28.653Z,22.57
2017-09-15T11:51:37.626Z,22.7
2017-09-15T11:52:46.581Z,22.6
2017-09-15T11:53:55.542Z,22.65
2017-09-15T11:55:04.516Z,22.62
2017-09-15T11:56:13.798Z,22.6
2017-09-15T11:57:23.107Z,22.54
2017-09-15T11:58:31.757Z,22.6
2017-09-15T11:59:40.727Z,22.62
2017-09-15T12:00:50.027Z,22.6
2017-09-15T12:01:58.993Z,22.65
2017-09-15T12:03:07.647Z,22.61
2017-09-15T12:04:16.937Z,22.62
2017-09-15T12:05:25.908Z,22.68
2017-09-15T12:06:34.641Z,22.65
2017-09-15T12:07:44.250Z,22.67
2017-09-15T12:08:52.900Z,22.75
2017-09-15T12:10:01.885Z,22.8
2017-09-15T12:11:11.179Z,22.82
2017-09-15T12:12:20.153Z,22.76
2017-09-15T12:13:28.791Z,22.79
2017-09-15T12:14:37.757Z,22.8
2017-09-15T12:15:46.415Z,22.77
2017-09-15T12:16:55.385Z,22.8
2017-09-15T12:18:04.685Z,22.68
2017-09-15T12:19:13.961Z,22.7
2017-09-15T12:20:23.390Z,22.75
2017-09-15T12:21:32.675Z,22.7
2017-09-15T12:22:41.986Z,22.72
2017-09-15T12:23:50.640Z,22.72
2017-09-15T12:24:59.605Z,22.7
2017-09-15T12:26:08.588Z,22.6
2017-09-15T12:27:17.548Z,22.75
2017-09-15T12:28:26.848Z,22.72
2017-09-15T12:29:36.255Z,22.67
2017-09-15T12:30:44.919Z,22.68
2017-09-15T12:31:53.733Z,22.68
2017-09-15T12:33:03.014Z,22.6
2017-09-15T12:34:11.670Z,22.73
2017-09-15T12:35:21.265Z,22.72
2017-09-15T12:36:29.923Z,22.6
2017-09-15T12:37:38.882Z,22.57
2017-09-15T12:38:47.531Z,22.67
2017-09-15T12:39:56.817Z,22.61
2017-09-15T12:41:05.787Z,22.58
2017-09-15T12:42:14.462Z,22.6
2017-09-15T12:43:24.527Z,22.6
2017-09-15T12:44:33.510Z,22.61
2017-09-15T12:45:42.836Z,22.58
2017-09-15T12:46:51.511Z,22.55
2017-09-15T12:48:00.479Z,22.52
2017-09-15T12:49:09.770Z,22.52
2017-09-15T12:50:18.753Z,22.57
2017-09-15T12:51:27.749Z,22.58
2017-09-15T12:52:37.040Z,22.55
2017-09-15T12:53:46.000Z,22.52
2017-09-15T12:54:54.750Z,22.61
2017-09-15T12:56:04.037Z,22.6
2017-09-15T12:57:13.316Z,22.62
2017-09-15T12:58:21.974Z,22.55
2017-09-15T12:59:30.930Z,22.58
2017-09-15T13:00:39.883Z,22.7
2017-09-15T13:01:48.876Z,22.58
2017-09-15T13:02:57.843Z,22.64
2017-09-15T13:04:06.510Z,22.61
2017-09-15T13:05:15.804Z,22.6
2017-09-15T13:06:24.767Z,22.6
2017-09-15T13:07:33.450Z,22.73
2017-09-15T13:08:42.547Z,22.67
2017-09-15T13:09:51.512Z,22.7
2017-09-15T13:11:01.111Z,22.77
2017-09-15T13:12:09.919Z,22.75
2017-09-15T13:13:18.566Z,22.72
2017-09-15T13:14:28.472Z,22.83
2017-09-15T13:15:37.444Z,22.73
2017-09-15T13:16:46.404Z,22.77
2017-09-15T13:17:55.526Z,22.76
2017-09-15T13:19:04.860Z,22.77
2017-09-15T13:20:14.165Z,22.8
2017-09-15T13:21:23.143Z,22.72
2017-09-15T13:22:32.115Z,22.79
2017-09-15T13:23:41.085Z,22.7
2017-09-15T13:24:50.063Z,22.7
2017-09-15T13:25:59.654Z,22.7
2017-09-15T13:27:08.924Z,22.72
2017-09-15T13:28:18.867Z,22.73
2017-09-15T13:29:27.684Z,22.67
2017-09-15T13:30:36.347Z,22.64
2017-09-15T13:31:45.311Z,22.68
2017-09-15T13:32:53.957Z,22.7
2017-09-15T13:34:03.234Z,22.72
2017-09-15T13:35:12.639Z,22.73
2017-09-15T13:36:21.918Z,22.67
2017-09-15T13:37:30.605Z,22.65
2017-09-15T13:38:39.558Z,22.58
2017-09-15T13:39:48.524Z,22.58
2017-09-15T13:40:57.499Z,22.57
2017-09-15T13:42:06.810Z,22.6
2017-09-15T13:43:16.092Z,22.61
2017-09-15T13:44:25.059Z,22.58
2017-09-15T13:45:34.019Z,22.67
2017-09-15T13:46:43.297Z,22.57
2017-09-15T13:47:51.954Z,22.58
2017-09-15T13:49:01.575Z,22.67
2017-09-15T13:50:10.215Z,22.64
2017-09-15T13:51:19.186Z,22.6
2017-09-15T13:52:28.616Z,22.57
2017-09-15T13:53:37.264Z,22.68
2017-09-15T13:54:46.228Z,22.68
2017-09-15T13:55:55.228Z,22.62
2017-09-15T13:57:04.202Z,22.58
2017-09-15T13:58:13.205Z,22.7
2017-09-15T13:59:21.853Z,22.58
2017-09-15T14:00:30.819Z,22.51
2017-09-15T14:01:39.786Z,22.55
2017-09-15T14:02:48.760Z,22.61
2017-09-15T14:03:57.409Z,22.6
2017-09-15T14:05:06.702Z,22.6
2017-09-15T14:06:15.699Z,22.57
2017-09-15T14:07:24.675Z,22.61
2017-09-15T14:08:33.961Z,22.52
2017-09-15T14:09:43.243Z,22.6
2017-09-15T14:10:52.224Z,22.58
2017-09-15T14:12:01.200Z,22.51
2017-09-15T14:13:10.789Z,22.61
2017-09-15T14:14:19.753Z,22.57
2017-09-15T14:15:29.186Z,22.58
2017-09-15T14:16:38.147Z,22.67
2017-09-15T14:17:47.109Z,22.51
2017-09-15T14:18:56.073Z,22.58
2017-09-15T14:20:05.043Z,22.67
2017-09-15T14:21:14.111Z,22.61
2017-09-15T14:22:23.078Z,22.52
2017-09-15T14:23:31.736Z,22.64
2017-09-15T14:24:40.703Z,22.61
2017-09-15T14:25:49.677Z,22.55
2017-09-15T14:26:58.490Z,22.57
2017-09-15T14:28:07.175Z,22.62
2017-09-15T14:29:15.829Z,22.54
2017-09-15T14:30:24.809Z,22.52
2017-09-15T14:31:33.836Z,22.58
2017-09-15T14:32:42.908Z,22.52
2017-09-15T14:33:51.932Z,22.65
2017-09-15T14:35:00.979Z,22.54
2017-09-15T14:36:10.887Z,22.55
2017-09-15T14:37:20.827Z,22.6
2017-09-15T14:38:30.261Z,22.52
2017-09-15T14:39:38.916Z,22.55
2017-09-15T14:40:48.193Z,22.35
2017-09-15T14:41:57.848Z,22.21
2017-09-15T14:43:06.818Z,21.98
2017-09-15T14:44:16.559Z,21.75
2017-09-15T14:45:26.158Z,21.64
2017-09-15T14:46:35.153Z,21.49
2017-09-15T14:47:44.439Z,21.34
2017-09-15T14:48:53.406Z,21.14
2017-09-15T14:50:02.845Z,20.99
2017-09-15T14:51:12.682Z,20.98
2017-09-15T14:52:22.315Z,20.79
2017-09-15T14:53:31.605Z,20.84
2017-09-15T14:54:40.621Z,20.72